sensor_id;sensor_type;location;lat;lon;timestamp;P1;durP1;ratioP1;P2;durP2;ratioP2
52940;SDS011;62001;53.366;6.636;2022-08-25T00:01:34;12.45;;;8.05;;
52940;SDS011;62001;53.366;6.636;2022-08-25T00:04:03;10.25;;;8.27;;
52940;SDS011;62001;53.366;6.636;2022-08-25T00:06:31;8.20;;;7.32;;
52940;SDS011;62001;53.366;6.636;2022-08-25T00:08:57;13.35;;;7.35;;
52940;SDS011;62001;53.366;6.636;2022-08-25T00:11:24;7.97;;;7.18;;
52940;SDS011;62001;53.366;6.636;2022-08-25T00:13:54;10.63;;;7.05;;
52940;SDS011;62001;53.366;6.636;2022-08-25T00:16:25;11.85;;;6.90;;
52940;SDS011;62001;53.366;6.636;2022-08-25T00:18:53;11.80;;;7.10;;
52940;SDS011;62001;53.366;6.636;2022-08-25T00:21:21;7.60;;;6.50;;
52940;SDS011;62001;53.366;6.636;2022-08-25T00:23:47;8.00;;;6.20;;
52940;SDS011;62001;53.366;6.636;2022-08-25T00:26:14;12.13;;;6.53;;
52940;SDS011;62001;53.366;6.636;2022-08-25T00:28:40;10.05;;;6.45;;
52940;SDS011;62001;53.366;6.636;2022-08-25T00:31:09;8.95;;;5.80;;
52940;SDS011;62001;53.366;6.636;2022-08-25T00:33:37;9.52;;;5.45;;
52940;SDS011;62001;53.366;6.636;2022-08-25T00:36:03;10.07;;;5.65;;
52940;SDS011;62001;53.366;6.636;2022-08-25T00:38:29;12.02;;;5.93;;
52940;SDS011;62001;53.366;6.636;2022-08-25T00:40:55;9.55;;;5.95;;
52940;SDS011;62001;53.366;6.636;2022-08-25T00:43:34;8.93;;;5.30;;
52940;SDS011;62001;53.366;6.636;2022-08-25T00:46:02;5.68;;;4.82;;
52940;SDS011;62001;53.366;6.636;2022-08-25T00:48:28;9.20;;;5.32;;
52940;SDS011;62001;53.366;6.636;2022-08-25T00:50:54;10.77;;;5.32;;
52940;SDS011;62001;53.366;6.636;2022-08-25T00:53:20;9.52;;;5.40;;
52940;SDS011;62001;53.366;6.636;2022-08-25T00:55:46;9.23;;;5.20;;
52940;SDS011;62001;53.366;6.636;2022-08-25T00:58:15;6.20;;;4.85;;
52940;SDS011;62001;53.366;6.636;2022-08-25T01:00:46;11.68;;;4.88;;
52940;SDS011;62001;53.366;6.636;2022-08-25T01:03:15;8.32;;;5.75;;
52940;SDS011;62001;53.366;6.636;2022-08-25T01:05:43;11.75;;;4.97;;
52940;SDS011;62001;53.366;6.636;2022-08-25T01:08:10;7.70;;;5.40;;
52940;SDS011;62001;53.366;6.636;2022-08-25T01:10:38;9.43;;;5.20;;
52940;SDS011;62001;53.366;6.636;2022-08-25T01:13:08;7.68;;;5.07;;
52940;SDS011;62001;53.366;6.636;2022-08-25T01:15:42;8.27;;;4.90;;
52940;SDS011;62001;53.366;6.636;2022-08-25T01:18:10;6.90;;;5.07;;
52940;SDS011;62001;53.366;6.636;2022-08-25T01:20:36;7.20;;;4.75;;
52940;SDS011;62001;53.366;6.636;2022-08-25T01:23:02;7.45;;;4.97;;
52940;SDS011;62001;53.366;6.636;2022-08-25T01:25:35;11.07;;;5.47;;
52940;SDS011;62001;53.366;6.636;2022-08-25T01:28:11;8.10;;;5.13;;
52940;SDS011;62001;53.366;6.636;2022-08-25T01:30:38;9.70;;;5.32;;
52940;SDS011;62001;53.366;6.636;2022-08-25T01:33:05;12.00;;;5.15;;
52940;SDS011;62001;53.366;6.636;2022-08-25T01:35:32;10.93;;;5.25;;
52940;SDS011;62001;53.366;6.636;2022-08-25T01:37:59;10.27;;;5.13;;
52940;SDS011;62001;53.366;6.636;2022-08-25T01:40:26;8.25;;;4.70;;
52940;SDS011;62001;53.366;6.636;2022-08-25T01:45:30;8.55;;;5.57;;
52940;SDS011;62001;53.366;6.636;2022-08-25T01:47:56;7.30;;;5.35;;
52940;SDS011;62001;53.366;6.636;2022-08-25T01:50:22;8.13;;;5.53;;
52940;SDS011;62001;53.366;6.636;2022-08-25T01:52:50;8.35;;;5.97;;
52940;SDS011;62001;53.366;6.636;2022-08-25T01:55:28;6.80;;;5.78;;
52940;SDS011;62001;53.366;6.636;2022-08-25T01:57:54;8.07;;;6.05;;
52940;SDS011;62001;53.366;6.636;2022-08-25T02:00:21;9.77;;;5.90;;
52940;SDS011;62001;53.366;6.636;2022-08-25T02:02:48;10.82;;;5.82;;
52940;SDS011;62001;53.366;6.636;2022-08-25T02:05:14;9.38;;;5.43;;
52940;SDS011;62001;53.366;6.636;2022-08-25T02:07:41;8.73;;;5.65;;
52940;SDS011;62001;53.366;6.636;2022-08-25T02:10:08;9.02;;;5.50;;
52940;SDS011;62001;53.366;6.636;2022-08-25T02:12:36;8.60;;;5.95;;
52940;SDS011;62001;53.366;6.636;2022-08-25T02:15:05;9.98;;;5.50;;
52940;SDS011;62001;53.366;6.636;2022-08-25T02:17:32;9.40;;;6.00;;
52940;SDS011;62001;53.366;6.636;2022-08-25T02:20:00;15.05;;;6.10;;
52940;SDS011;62001;53.366;6.636;2022-08-25T02:22:28;9.85;;;6.03;;
52940;SDS011;62001;53.366;6.636;2022-08-25T02:24:54;8.70;;;6.20;;
52940;SDS011;62001;53.366;6.636;2022-08-25T02:27:19;7.22;;;6.28;;
52940;SDS011;62001;53.366;6.636;2022-08-25T02:29:45;9.30;;;5.75;;
52940;SDS011;62001;53.366;6.636;2022-08-25T02:32:11;8.00;;;6.07;;
52940;SDS011;62001;53.366;6.636;2022-08-25T02:34:37;10.50;;;5.90;;
52940;SDS011;62001;53.366;6.636;2022-08-25T02:37:05;8.23;;;6.32;;
52940;SDS011;62001;53.366;6.636;2022-08-25T02:39:32;8.25;;;6.13;;
52940;SDS011;62001;53.366;6.636;2022-08-25T02:41:58;13.40;;;6.18;;
52940;SDS011;62001;53.366;6.636;2022-08-25T02:44:24;9.95;;;6.03;;
52940;SDS011;62001;53.366;6.636;2022-08-25T02:46:50;7.57;;;6.07;;
52940;SDS011;62001;53.366;6.636;2022-08-25T02:49:15;8.65;;;6.07;;
52940;SDS011;62001;53.366;6.636;2022-08-25T02:51:42;7.35;;;6.15;;
52940;SDS011;62001;53.366;6.636;2022-08-25T02:54:08;8.90;;;6.20;;
52940;SDS011;62001;53.366;6.636;2022-08-25T02:56:34;8.80;;;6.40;;
52940;SDS011;62001;53.366;6.636;2022-08-25T02:59:00;10.90;;;6.35;;
52940;SDS011;62001;53.366;6.636;2022-08-25T03:01:27;11.32;;;6.13;;
52940;SDS011;62001;53.366;6.636;2022-08-25T03:03:53;9.10;;;6.40;;
52940;SDS011;62001;53.366;6.636;2022-08-25T03:06:20;15.93;;;6.97;;
52940;SDS011;62001;53.366;6.636;2022-08-25T03:08:50;8.63;;;6.22;;
52940;SDS011;62001;53.366;6.636;2022-08-25T03:11:16;9.50;;;6.57;;
52940;SDS011;62001;53.366;6.636;2022-08-25T03:13:42;10.27;;;6.53;;
52940;SDS011;62001;53.366;6.636;2022-08-25T03:16:09;8.95;;;6.28;;
52940;SDS011;62001;53.366;6.636;2022-08-25T03:18:35;8.80;;;6.40;;
52940;SDS011;62001;53.366;6.636;2022-08-25T03:21:01;10.32;;;6.25;;
52940;SDS011;62001;53.366;6.636;2022-08-25T03:23:27;11.95;;;6.32;;
52940;SDS011;62001;53.366;6.636;2022-08-25T03:25:54;11.25;;;6.65;;
52940;SDS011;62001;53.366;6.636;2022-08-25T03:28:39;12.48;;;7.00;;
52940;SDS011;62001;53.366;6.636;2022-08-25T03:31:06;9.88;;;6.07;;
52940;SDS011;62001;53.366;6.636;2022-08-25T03:33:32;8.13;;;6.40;;
52940;SDS011;62001;53.366;6.636;2022-08-25T03:35:59;11.43;;;6.35;;
52940;SDS011;62001;53.366;6.636;2022-08-25T03:38:25;11.05;;;6.78;;
52940;SDS011;62001;53.366;6.636;2022-08-25T03:40:52;10.63;;;6.65;;
52940;SDS011;62001;53.366;6.636;2022-08-25T03:43:18;11.85;;;6.82;;
52940;SDS011;62001;53.366;6.636;2022-08-25T03:45:45;11.60;;;7.38;;
52940;SDS011;62001;53.366;6.636;2022-08-25T03:48:12;8.35;;;6.53;;
52940;SDS011;62001;53.366;6.636;2022-08-25T03:50:48;10.70;;;7.35;;
52940;SDS011;62001;53.366;6.636;2022-08-25T03:53:15;10.68;;;6.88;;
52940;SDS011;62001;53.366;6.636;2022-08-25T03:55:41;10.82;;;7.00;;
52940;SDS011;62001;53.366;6.636;2022-08-25T03:58:07;9.80;;;7.03;;
52940;SDS011;62001;53.366;6.636;2022-08-25T04:00:33;10.40;;;6.90;;
52940;SDS011;62001;53.366;6.636;2022-08-25T04:02:59;10.95;;;7.30;;
52940;SDS011;62001;53.366;6.636;2022-08-25T04:05:25;10.32;;;7.03;;
52940;SDS011;62001;53.366;6.636;2022-08-25T04:07:51;9.65;;;6.95;;
52940;SDS011;62001;53.366;6.636;2022-08-25T04:10:17;11.27;;;7.57;;
52940;SDS011;62001;53.366;6.636;2022-08-25T04:12:42;10.52;;;7.70;;
52940;SDS011;62001;53.366;6.636;2022-08-25T04:15:09;12.45;;;7.82;;
52940;SDS011;62001;53.366;6.636;2022-08-25T04:17:36;11.05;;;7.53;;
52940;SDS011;62001;53.366;6.636;2022-08-25T04:20:03;13.15;;;7.40;;
52940;SDS011;62001;53.366;6.636;2022-08-25T04:22:30;12.63;;;8.10;;
52940;SDS011;62001;53.366;6.636;2022-08-25T04:24:57;11.85;;;7.47;;
52940;SDS011;62001;53.366;6.636;2022-08-25T04:27:23;8.32;;;7.25;;
52940;SDS011;62001;53.366;6.636;2022-08-25T04:29:49;14.98;;;7.93;;
52940;SDS011;62001;53.366;6.636;2022-08-25T04:32:15;11.40;;;7.60;;
52940;SDS011;62001;53.366;6.636;2022-08-25T04:34:41;12.60;;;7.18;;
52940;SDS011;62001;53.366;6.636;2022-08-25T04:37:07;12.40;;;7.13;;
52940;SDS011;62001;53.366;6.636;2022-08-25T04:39:33;12.82;;;7.80;;
52940;SDS011;62001;53.366;6.636;2022-08-25T04:42:00;11.05;;;7.53;;
52940;SDS011;62001;53.366;6.636;2022-08-25T04:44:26;13.23;;;8.10;;
52940;SDS011;62001;53.366;6.636;2022-08-25T04:46:54;11.23;;;7.88;;
52940;SDS011;62001;53.366;6.636;2022-08-25T04:49:20;12.07;;;7.18;;
52940;SDS011;62001;53.366;6.636;2022-08-25T04:51:45;10.57;;;7.78;;
52940;SDS011;62001;53.366;6.636;2022-08-25T04:54:12;13.98;;;8.85;;
52940;SDS011;62001;53.366;6.636;2022-08-25T04:56:45;13.45;;;8.35;;
52940;SDS011;62001;53.366;6.636;2022-08-25T04:59:12;13.05;;;7.70;;
52940;SDS011;62001;53.366;6.636;2022-08-25T05:01:40;8.80;;;6.85;;
52940;SDS011;62001;53.366;6.636;2022-08-25T05:04:11;12.60;;;8.18;;
52940;SDS011;62001;53.366;6.636;2022-08-25T05:06:38;12.35;;;7.93;;
52940;SDS011;62001;53.366;6.636;2022-08-25T05:09:05;9.70;;;7.63;;
52940;SDS011;62001;53.366;6.636;2022-08-25T05:11:31;10.20;;;7.55;;
52940;SDS011;62001;53.366;6.636;2022-08-25T05:13:59;10.52;;;7.90;;
52940;SDS011;62001;53.366;6.636;2022-08-25T05:16:25;14.93;;;7.88;;
52940;SDS011;62001;53.366;6.636;2022-08-25T05:18:53;12.45;;;7.20;;
52940;SDS011;62001;53.366;6.636;2022-08-25T05:21:20;13.65;;;7.65;;
52940;SDS011;62001;53.366;6.636;2022-08-25T05:23:48;10.57;;;7.70;;
52940;SDS011;62001;53.366;6.636;2022-08-25T05:26:16;11.27;;;7.78;;
52940;SDS011;62001;53.366;6.636;2022-08-25T05:28:47;14.32;;;8.27;;
52940;SDS011;62001;53.366;6.636;2022-08-25T05:31:14;10.23;;;7.60;;
52940;SDS011;62001;53.366;6.636;2022-08-25T05:33:41;11.45;;;7.70;;
52940;SDS011;62001;53.366;6.636;2022-08-25T05:36:08;13.32;;;7.40;;
52940;SDS011;62001;53.366;6.636;2022-08-25T05:38:35;11.43;;;7.75;;
52940;SDS011;62001;53.366;6.636;2022-08-25T05:41:06;11.95;;;7.80;;
52940;SDS011;62001;53.366;6.636;2022-08-25T05:43:37;11.88;;;7.57;;
52940;SDS011;62001;53.366;6.636;2022-08-25T05:46:05;12.65;;;7.35;;
52940;SDS011;62001;53.366;6.636;2022-08-25T05:48:31;10.63;;;7.63;;
52940;SDS011;62001;53.366;6.636;2022-08-25T05:50:57;11.10;;;7.63;;
52940;SDS011;62001;53.366;6.636;2022-08-25T05:53:25;11.43;;;7.10;;
52940;SDS011;62001;53.366;6.636;2022-08-25T05:55:54;10.37;;;7.60;;
52940;SDS011;62001;53.366;6.636;2022-08-25T05:58:21;12.15;;;7.50;;
52940;SDS011;62001;53.366;6.636;2022-08-25T06:00:49;11.20;;;7.43;;
52940;SDS011;62001;53.366;6.636;2022-08-25T06:03:15;13.93;;;7.82;;
52940;SDS011;62001;53.366;6.636;2022-08-25T06:05:42;10.30;;;7.72;;
52940;SDS011;62001;53.366;6.636;2022-08-25T06:08:08;9.75;;;7.22;;
52940;SDS011;62001;53.366;6.636;2022-08-25T06:10:35;9.90;;;7.55;;
52940;SDS011;62001;53.366;6.636;2022-08-25T06:13:01;13.13;;;8.35;;
52940;SDS011;62001;53.366;6.636;2022-08-25T06:15:28;13.00;;;8.48;;
52940;SDS011;62001;53.366;6.636;2022-08-25T06:17:54;14.73;;;7.68;;
52940;SDS011;62001;53.366;6.636;2022-08-25T06:20:25;9.13;;;7.70;;
52940;SDS011;62001;53.366;6.636;2022-08-25T06:22:52;15.20;;;8.18;;
52940;SDS011;62001;53.366;6.636;2022-08-25T06:25:20;13.63;;;8.30;;
52940;SDS011;62001;53.366;6.636;2022-08-25T06:27:47;10.77;;;7.93;;
52940;SDS011;62001;53.366;6.636;2022-08-25T06:30:14;11.48;;;7.95;;
52940;SDS011;62001;53.366;6.636;2022-08-25T06:32:42;14.65;;;7.80;;
52940;SDS011;62001;53.366;6.636;2022-08-25T06:35:10;21.25;;;8.73;;
52940;SDS011;62001;53.366;6.636;2022-08-25T06:37:38;17.75;;;8.77;;
52940;SDS011;62001;53.366;6.636;2022-08-25T06:40:06;17.20;;;8.27;;
52940;SDS011;62001;53.366;6.636;2022-08-25T06:42:33;10.63;;;8.07;;
52940;SDS011;62001;53.366;6.636;2022-08-25T06:44:59;17.73;;;7.50;;
52940;SDS011;62001;53.366;6.636;2022-08-25T06:47:25;11.93;;;7.22;;
52940;SDS011;62001;53.366;6.636;2022-08-25T06:49:51;15.73;;;8.10;;
52940;SDS011;62001;53.366;6.636;2022-08-25T06:52:17;14.18;;;8.18;;
52940;SDS011;62001;53.366;6.636;2022-08-25T06:54:44;13.32;;;7.68;;
52940;SDS011;62001;53.366;6.636;2022-08-25T06:57:10;10.77;;;7.15;;
52940;SDS011;62001;53.366;6.636;2022-08-25T06:59:36;10.70;;;7.47;;
52940;SDS011;62001;53.366;6.636;2022-08-25T07:02:03;12.80;;;7.03;;
52940;SDS011;62001;53.366;6.636;2022-08-25T07:04:30;10.57;;;7.18;;
52940;SDS011;62001;53.366;6.636;2022-08-25T07:06:56;8.77;;;7.15;;
52940;SDS011;62001;53.366;6.636;2022-08-25T07:09:23;14.63;;;6.78;;
52940;SDS011;62001;53.366;6.636;2022-08-25T07:11:48;15.82;;;7.53;;
52940;SDS011;62001;53.366;6.636;2022-08-25T07:14:15;9.80;;;6.68;;
52940;SDS011;62001;53.366;6.636;2022-08-25T07:16:42;15.52;;;6.93;;
52940;SDS011;62001;53.366;6.636;2022-08-25T07:19:09;9.85;;;6.43;;
52940;SDS011;62001;53.366;6.636;2022-08-25T07:21:36;9.35;;;6.57;;
52940;SDS011;62001;53.366;6.636;2022-08-25T07:24:04;11.02;;;6.45;;
52940;SDS011;62001;53.366;6.636;2022-08-25T07:26:35;8.68;;;6.53;;
52940;SDS011;62001;53.366;6.636;2022-08-25T07:29:07;9.98;;;6.70;;
52940;SDS011;62001;53.366;6.636;2022-08-25T07:31:35;11.65;;;6.53;;
52940;SDS011;62001;53.366;6.636;2022-08-25T07:34:01;10.02;;;6.78;;
52940;SDS011;62001;53.366;6.636;2022-08-25T07:36:45;9.82;;;6.70;;
52940;SDS011;62001;53.366;6.636;2022-08-25T07:39:12;12.73;;;6.65;;
52940;SDS011;62001;53.366;6.636;2022-08-25T07:41:39;9.82;;;6.05;;
52940;SDS011;62001;53.366;6.636;2022-08-25T07:44:06;15.07;;;6.82;;
52940;SDS011;62001;53.366;6.636;2022-08-25T07:46:32;11.30;;;7.22;;
52940;SDS011;62001;53.366;6.636;2022-08-25T07:48:58;11.07;;;6.53;;
52940;SDS011;62001;53.366;6.636;2022-08-25T07:51:24;15.45;;;6.50;;
52940;SDS011;62001;53.366;6.636;2022-08-25T07:53:50;13.18;;;7.00;;
52940;SDS011;62001;53.366;6.636;2022-08-25T07:56:16;13.77;;;6.20;;
52940;SDS011;62001;53.366;6.636;2022-08-25T07:58:43;9.98;;;5.97;;
52940;SDS011;62001;53.366;6.636;2022-08-25T08:01:13;10.23;;;6.47;;
52940;SDS011;62001;53.366;6.636;2022-08-25T08:03:44;8.90;;;6.43;;
52940;SDS011;62001;53.366;6.636;2022-08-25T08:06:11;10.63;;;6.38;;
52940;SDS011;62001;53.366;6.636;2022-08-25T08:08:40;9.87;;;6.30;;
52940;SDS011;62001;53.366;6.636;2022-08-25T08:13:45;7.55;;;6.20;;
52940;SDS011;62001;53.366;6.636;2022-08-25T08:16:13;12.45;;;6.15;;
52940;SDS011;62001;53.366;6.636;2022-08-25T08:18:40;11.20;;;6.13;;
52940;SDS011;62001;53.366;6.636;2022-08-25T08:21:14;12.90;;;6.22;;
52940;SDS011;62001;53.366;6.636;2022-08-25T08:23:41;11.30;;;5.47;;
52940;SDS011;62001;53.366;6.636;2022-08-25T08:26:07;8.77;;;5.25;;
52940;SDS011;62001;53.366;6.636;2022-08-25T08:28:33;8.05;;;5.65;;
52940;SDS011;62001;53.366;6.636;2022-08-25T08:30:59;11.60;;;5.90;;
52940;SDS011;62001;53.366;6.636;2022-08-25T08:33:25;10.52;;;6.00;;
52940;SDS011;62001;53.366;6.636;2022-08-25T08:36:04;15.05;;;6.13;;
52940;SDS011;62001;53.366;6.636;2022-08-25T08:38:34;8.27;;;6.10;;
52940;SDS011;62001;53.366;6.636;2022-08-25T08:43:45;11.15;;;6.03;;
52940;SDS011;62001;53.366;6.636;2022-08-25T08:46:16;11.07;;;5.35;;
52940;SDS011;62001;53.366;6.636;2022-08-25T08:51:25;9.55;;;5.45;;
52940;SDS011;62001;53.366;6.636;2022-08-25T08:54:12;8.27;;;5.53;;
52940;SDS011;62001;53.366;6.636;2022-08-25T08:56:43;7.93;;;5.10;;
52940;SDS011;62001;53.366;6.636;2022-08-25T08:59:15;5.72;;;4.65;;
52940;SDS011;62001;53.366;6.636;2022-08-25T09:01:50;12.98;;;5.50;;
52940;SDS011;62001;53.366;6.636;2022-08-25T09:07:16;7.68;;;4.75;;
52940;SDS011;62001;53.366;6.636;2022-08-25T09:09:45;11.20;;;5.43;;
52940;SDS011;62001;53.366;6.636;2022-08-25T09:18:22;9.20;;;4.60;;
52940;SDS011;62001;53.366;6.636;2022-08-25T09:21:33;13.55;;;5.35;;
52940;SDS011;62001;53.366;6.636;2022-08-25T09:29:11;8.57;;;4.93;;
52940;SDS011;62001;53.366;6.636;2022-08-25T09:31:40;11.02;;;4.95;;
52940;SDS011;62001;53.366;6.636;2022-08-25T09:34:17;8.57;;;4.68;;
52940;SDS011;62001;53.366;6.636;2022-08-25T09:36:46;11.32;;;5.85;;
52940;SDS011;62001;53.366;6.636;2022-08-25T09:39:15;11.20;;;4.65;;
52940;SDS011;62001;53.366;6.636;2022-08-25T09:44:15;8.38;;;4.15;;
52940;SDS011;62001;53.366;6.636;2022-08-25T09:47:00;8.80;;;4.30;;
52940;SDS011;62001;53.366;6.636;2022-08-25T09:49:30;10.70;;;4.53;;
52940;SDS011;62001;53.366;6.636;2022-08-25T09:52:15;9.35;;;4.30;;
52940;SDS011;62001;53.366;6.636;2022-08-25T09:54:48;14.32;;;5.35;;
52940;SDS011;62001;53.366;6.636;2022-08-25T09:57:37;7.65;;;4.88;;
52940;SDS011;62001;53.366;6.636;2022-08-25T10:02:39;11.00;;;4.85;;
52940;SDS011;62001;53.366;6.636;2022-08-25T10:05:23;8.88;;;6.15;;
52940;SDS011;62001;53.366;6.636;2022-08-25T10:07:55;13.48;;;5.45;;
52940;SDS011;62001;53.366;6.636;2022-08-25T10:10:29;14.15;;;4.85;;
52940;SDS011;62001;53.366;6.636;2022-08-25T10:12:57;9.48;;;4.60;;
52940;SDS011;62001;53.366;6.636;2022-08-25T10:15:35;8.05;;;3.70;;
52940;SDS011;62001;53.366;6.636;2022-08-25T10:18:18;10.60;;;4.32;;
52940;SDS011;62001;53.366;6.636;2022-08-25T10:23:39;5.90;;;3.58;;
52940;SDS011;62001;53.366;6.636;2022-08-25T10:26:12;9.82;;;3.85;;
52940;SDS011;62001;53.366;6.636;2022-08-25T10:31:18;12.18;;;4.25;;
52940;SDS011;62001;53.366;6.636;2022-08-25T10:39:16;9.00;;;4.25;;
52940;SDS011;62001;53.366;6.636;2022-08-25T10:44:49;7.68;;;4.70;;
52940;SDS011;62001;53.366;6.636;2022-08-25T10:47:50;9.05;;;5.07;;
52940;SDS011;62001;53.366;6.636;2022-08-25T10:50:26;7.68;;;4.88;;
52940;SDS011;62001;53.366;6.636;2022-08-25T10:53:27;8.23;;;5.00;;
52940;SDS011;62001;53.366;6.636;2022-08-25T11:01:46;11.32;;;5.30;;
52940;SDS011;62001;53.366;6.636;2022-08-25T11:04:22;8.10;;;5.18;;
52940;SDS011;62001;53.366;6.636;2022-08-25T11:07:02;10.48;;;5.47;;
52940;SDS011;62001;53.366;6.636;2022-08-25T11:09:42;8.00;;;5.00;;
52940;SDS011;62001;53.366;6.636;2022-08-25T11:12:20;9.93;;;5.72;;
52940;SDS011;62001;53.366;6.636;2022-08-25T11:15:09;8.75;;;5.82;;
52940;SDS011;62001;53.366;6.636;2022-08-25T11:20:19;7.68;;;5.13;;
52940;SDS011;62001;53.366;6.636;2022-08-25T11:23:19;9.55;;;5.10;;
52940;SDS011;62001;53.366;6.636;2022-08-25T11:25:44;8.93;;;5.32;;
52940;SDS011;62001;53.366;6.636;2022-08-25T11:30:59;5.75;;;5.13;;
52940;SDS011;62001;53.366;6.636;2022-08-25T11:33:27;9.70;;;4.63;;
52940;SDS011;62001;53.366;6.636;2022-08-25T11:36:17;11.52;;;5.20;;
52940;SDS011;62001;53.366;6.636;2022-08-25T11:50:04;11.18;;;4.68;;
52940;SDS011;62001;53.366;6.636;2022-08-25T11:52:53;8.30;;;4.70;;
52940;SDS011;62001;53.366;6.636;2022-08-25T11:58:11;5.88;;;4.47;;
52940;SDS011;62001;53.366;6.636;2022-08-25T12:00:57;7.57;;;4.30;;
52940;SDS011;62001;53.366;6.636;2022-08-25T12:08:47;10.48;;;3.95;;
52940;SDS011;62001;53.366;6.636;2022-08-25T12:11:41;10.32;;;4.20;;
52940;SDS011;62001;53.366;6.636;2022-08-25T12:27:19;10.48;;;3.88;;
52940;SDS011;62001;53.366;6.636;2022-08-25T12:38:06;6.85;;;3.72;;
52940;SDS011;62001;53.366;6.636;2022-08-25T12:45:54;5.80;;;3.50;;
52940;SDS011;62001;53.366;6.636;2022-08-25T12:57:21;4.90;;;3.40;;
52940;SDS011;62001;53.366;6.636;2022-08-25T13:00:05;6.55;;;4.35;;
52940;SDS011;62001;53.366;6.636;2022-08-25T13:11:00;6.25;;;3.17;;
52940;SDS011;62001;53.366;6.636;2022-08-25T13:16:22;8.93;;;4.78;;
52940;SDS011;62001;53.366;6.636;2022-08-25T13:18:51;5.80;;;3.58;;
52940;SDS011;62001;53.366;6.636;2022-08-25T13:24:00;7.13;;;3.13;;
52940;SDS011;62001;53.366;6.636;2022-08-25T13:26:30;8.18;;;3.25;;
52940;SDS011;62001;53.366;6.636;2022-08-25T13:31:24;8.95;;;4.82;;
52940;SDS011;62001;53.366;6.636;2022-08-25T13:33:55;8.80;;;4.40;;
52940;SDS011;62001;53.366;6.636;2022-08-25T13:36:27;12.10;;;3.40;;
52940;SDS011;62001;53.366;6.636;2022-08-25T13:39:15;7.63;;;3.10;;
52940;SDS011;62001;53.366;6.636;2022-08-25T13:41:47;5.07;;;3.53;;
52940;SDS011;62001;53.366;6.636;2022-08-25T13:44:15;5.85;;;3.30;;
52940;SDS011;62001;53.366;6.636;2022-08-25T13:46:42;5.25;;;3.90;;
52940;SDS011;62001;53.366;6.636;2022-08-25T13:49:10;5.55;;;3.08;;
52940;SDS011;62001;53.366;6.636;2022-08-25T13:51:37;8.20;;;4.70;;
52940;SDS011;62001;53.366;6.636;2022-08-25T13:54:26;7.32;;;3.97;;
52940;SDS011;62001;53.366;6.636;2022-08-25T13:57:02;9.65;;;3.53;;
52940;SDS011;62001;53.366;6.636;2022-08-25T13:59:40;6.95;;;3.55;;
52940;SDS011;62001;53.366;6.636;2022-08-25T14:02:08;9.25;;;3.35;;
52940;SDS011;62001;53.366;6.636;2022-08-25T14:07:05;5.72;;;3.20;;
52940;SDS011;62001;53.366;6.636;2022-08-25T14:09:46;8.43;;;3.47;;
52940;SDS011;62001;53.366;6.636;2022-08-25T14:12:29;8.77;;;3.70;;
52940;SDS011;62001;53.366;6.636;2022-08-25T14:18:27;7.03;;;3.83;;
52940;SDS011;62001;53.366;6.636;2022-08-25T14:20:38;5.00;;;2.92;;
52940;SDS011;62001;53.366;6.636;2022-08-25T14:23:10;13.25;;;4.32;;
52940;SDS011;62001;53.366;6.636;2022-08-25T14:25:43;4.90;;;3.38;;
52940;SDS011;62001;53.366;6.636;2022-08-25T14:28:11;6.45;;;3.35;;
52940;SDS011;62001;53.366;6.636;2022-08-25T14:30:47;8.23;;;3.83;;
52940;SDS011;62001;53.366;6.636;2022-08-25T14:33:37;9.35;;;3.75;;
52940;SDS011;62001;53.366;6.636;2022-08-25T14:36:15;10.18;;;3.30;;
52940;SDS011;62001;53.366;6.636;2022-08-25T14:38:41;4.32;;;3.70;;
52940;SDS011;62001;53.366;6.636;2022-08-25T14:41:07;6.97;;;3.88;;
52940;SDS011;62001;53.366;6.636;2022-08-25T14:43:33;5.90;;;3.60;;
52940;SDS011;62001;53.366;6.636;2022-08-25T14:45:59;15.40;;;4.20;;
52940;SDS011;62001;53.366;6.636;2022-08-25T14:48:49;5.32;;;3.60;;
52940;SDS011;62001;53.366;6.636;2022-08-25T14:51:19;6.85;;;3.72;;
52940;SDS011;62001;53.366;6.636;2022-08-25T14:53:47;5.20;;;3.55;;
52940;SDS011;62001;53.366;6.636;2022-08-25T14:56:13;5.80;;;3.60;;
52940;SDS011;62001;53.366;6.636;2022-08-25T14:58:39;7.85;;;4.00;;
52940;SDS011;62001;53.366;6.636;2022-08-25T15:01:05;4.85;;;3.60;;
52940;SDS011;62001;53.366;6.636;2022-08-25T15:03:37;7.65;;;3.72;;
52940;SDS011;62001;53.366;6.636;2022-08-25T15:06:07;4.15;;;3.75;;
52940;SDS011;62001;53.366;6.636;2022-08-25T15:08:35;8.55;;;4.07;;
52940;SDS011;62001;53.366;6.636;2022-08-25T15:11:20;5.85;;;3.80;;
52940;SDS011;62001;53.366;6.636;2022-08-25T15:13:46;4.43;;;3.75;;
52940;SDS011;62001;53.366;6.636;2022-08-25T15:16:13;6.43;;;3.40;;
52940;SDS011;62001;53.366;6.636;2022-08-25T15:18:44;5.43;;;3.60;;
52940;SDS011;62001;53.366;6.636;2022-08-25T15:21:10;7.47;;;3.38;;
52940;SDS011;62001;53.366;6.636;2022-08-25T15:23:36;5.72;;;3.60;;
52940;SDS011;62001;53.366;6.636;2022-08-25T15:26:02;5.22;;;3.40;;
52940;SDS011;62001;53.366;6.636;2022-08-25T15:28:28;4.63;;;3.70;;
52940;SDS011;62001;53.366;6.636;2022-08-25T15:30:54;6.95;;;3.53;;
52940;SDS011;62001;53.366;6.636;2022-08-25T15:33:20;6.30;;;3.35;;
52940;SDS011;62001;53.366;6.636;2022-08-25T15:35:46;4.35;;;3.63;;
52940;SDS011;62001;53.366;6.636;2022-08-25T15:38:12;9.30;;;3.70;;
52940;SDS011;62001;53.366;6.636;2022-08-25T15:40:38;8.00;;;3.50;;
52940;SDS011;62001;53.366;6.636;2022-08-25T15:43:04;5.72;;;3.15;;
52940;SDS011;62001;53.366;6.636;2022-08-25T15:45:31;6.57;;;3.63;;
52940;SDS011;62001;53.366;6.636;2022-08-25T15:47:57;10.43;;;3.92;;
52940;SDS011;62001;53.366;6.636;2022-08-25T15:50:22;7.22;;;3.85;;
52940;SDS011;62001;53.366;6.636;2022-08-25T15:52:50;6.22;;;3.85;;
52940;SDS011;62001;53.366;6.636;2022-08-25T15:55:16;3.88;;;3.45;;
52940;SDS011;62001;53.366;6.636;2022-08-25T15:57:42;4.43;;;3.33;;
52940;SDS011;62001;53.366;6.636;2022-08-25T16:00:09;6.90;;;3.53;;
52940;SDS011;62001;53.366;6.636;2022-08-25T16:02:36;6.03;;;3.10;;
52940;SDS011;62001;53.366;6.636;2022-08-25T16:05:04;6.97;;;3.00;;
52940;SDS011;62001;53.366;6.636;2022-08-25T16:07:33;5.00;;;3.20;;
52940;SDS011;62001;53.366;6.636;2022-08-25T16:09:58;4.70;;;3.25;;
52940;SDS011;62001;53.366;6.636;2022-08-25T16:12:24;5.22;;;2.83;;
52940;SDS011;62001;53.366;6.636;2022-08-25T16:14:50;6.15;;;3.30;;
52940;SDS011;62001;53.366;6.636;2022-08-25T16:17:17;11.20;;;3.63;;
52940;SDS011;62001;53.366;6.636;2022-08-25T16:19:44;4.97;;;3.10;;
52940;SDS011;62001;53.366;6.636;2022-08-25T16:22:11;5.00;;;3.30;;
52940;SDS011;62001;53.366;6.636;2022-08-25T16:24:40;4.22;;;3.50;;
52940;SDS011;62001;53.366;6.636;2022-08-25T16:27:10;8.27;;;3.50;;
52940;SDS011;62001;53.366;6.636;2022-08-25T16:29:38;5.65;;;3.40;;
52940;SDS011;62001;53.366;6.636;2022-08-25T16:32:09;7.10;;;3.10;;
52940;SDS011;62001;53.366;6.636;2022-08-25T16:34:36;5.68;;;3.35;;
52940;SDS011;62001;53.366;6.636;2022-08-25T16:37:03;9.82;;;3.55;;
52940;SDS011;62001;53.366;6.636;2022-08-25T16:39:29;4.70;;;3.70;;
52940;SDS011;62001;53.366;6.636;2022-08-25T16:41:55;6.70;;;3.70;;
52940;SDS011;62001;53.366;6.636;2022-08-25T16:44:21;5.97;;;3.35;;
52940;SDS011;62001;53.366;6.636;2022-08-25T16:46:48;4.05;;;3.63;;
52940;SDS011;62001;53.366;6.636;2022-08-25T16:49:18;7.20;;;3.63;;
52940;SDS011;62001;53.366;6.636;2022-08-25T16:51:44;6.45;;;3.85;;
52940;SDS011;62001;53.366;6.636;2022-08-25T16:54:10;6.03;;;3.90;;
52940;SDS011;62001;53.366;6.636;2022-08-25T16:56:55;5.22;;;3.90;;
52940;SDS011;62001;53.366;6.636;2022-08-25T16:59:22;5.63;;;3.63;;
52940;SDS011;62001;53.366;6.636;2022-08-25T17:01:49;6.65;;;4.13;;
52940;SDS011;62001;53.366;6.636;2022-08-25T17:04:15;8.27;;;4.07;;
52940;SDS011;62001;53.366;6.636;2022-08-25T17:06:42;7.45;;;4.03;;
52940;SDS011;62001;53.366;6.636;2022-08-25T17:09:09;8.48;;;4.32;;